Time;durP1;ratioP1;P1;durP2;ratioP2;P2;SDS_P1;SDS_P2;PMS_P1;PMS_P2;Temp;Humidity;BMP_temperature;BMP_pressure;BME280_temperature;BME280_humidity;BME280_pressure;Samples;Min_cycle;Max_cycle;Signal;HPM_P1;HPM_P2
2021/03/12 00:00:16;;;;;;;102.65;37.28;;;2.80;99.90;;;;;;4461608;28;660434;-61
2021/03/12 00:03:05;;;;;;;95.17;36.47;;;2.80;99.90;;;;;;4446214;28;659907;-61
2021/03/12 00:05:53;;;;;;;68.10;30.40;;;3.00;99.90;;;;;;4464163;28;660111;-57
2021/03/12 00:08:41;;;;;;;62.20;25.63;;;3.30;99.90;;;;;;4471212;28;659252;-61
2021/03/12 00:11:28;;;;;;;35.17;15.73;;;3.40;99.90;;;;;;4448114;28;658618;-61
2021/03/12 00:14:15;;;;;;;40.07;19.17;;;3.80;99.90;;;;;;4460643;28;659863;-61
2021/03/12 00:17:02;;;;;;;44.93;21.07;;;4.40;99.90;;;;;;4452729;28;659059;-57
2021/03/12 00:19:50;;;;;;;42.17;18.85;;;4.50;99.90;;;;;;4464113;28;658915;-61
2021/03/12 00:22:37;;;;;;;38.33;18.70;;;4.70;99.90;;;;;;4447853;28;659008;-58
2021/03/12 00:25:26;;;;;;;20.50;8.40;;;4.80;99.90;;;;;;4459513;28;659670;-62
2021/03/12 00:28:14;;;;;;;29.17;14.53;;;4.80;99.90;;;;;;4439555;28;658950;-60
2021/03/12 00:31:01;;;;;;;29.07;14.60;;;5.00;99.90;;;;;;4460557;28;659659;-61
2021/03/12 00:33:47;;;;;;;31.40;14.90;;;4.90;99.90;;;;;;4448861;28;659814;-60
2021/03/12 00:36:35;;;;;;;13.07;7.43;;;5.00;99.90;;;;;;4466975;28;660789;-61
2021/03/12 00:39:22;;;;;;;13.85;6.45;;;5.00;99.90;;;;;;4448875;28;657960;-58
2021/03/12 00:42:09;;;;;;;27.27;14.80;;;5.20;99.90;;;;;;4466865;28;657832;-59
2021/03/12 00:44:56;;;;;;;24.80;13.63;;;5.20;99.90;;;;;;4466013;28;658951;-61
2021/03/12 00:47:43;;;;;;;28.97;14.23;;;5.10;99.90;;;;;;4442137;28;658910;-60
2021/03/12 00:50:32;;;;;;;22.07;13.40;;;5.00;99.90;;;;;;4464833;28;659810;-61
2021/03/12 00:53:20;;;;;;;26.67;14.07;;;5.00;99.90;;;;;;4443329;28;659568;-62
2021/03/12 00:56:07;;;;;;;29.25;15.25;;;5.10;99.90;;;;;;4438186;28;660455;-60
2021/03/12 00:58:54;;;;;;;17.27;8.90;;;5.00;99.90;;;;;;4469736;28;658677;-60
2021/03/12 01:01:41;;;;;;;20.40;10.17;;;5.10;99.90;;;;;;4459709;28;658856;-62
2021/03/12 01:04:28;;;;;;;25.20;12.47;;;5.10;99.90;;;;;;4447208;28;659014;-60
2021/03/12 01:07:15;;;;;;;27.23;13.33;;;5.00;99.90;;;;;;4467290;28;659016;-61
2021/03/12 01:10:04;;;;;;;30.07;14.40;;;4.90;99.90;;;;;;4450811;28;659203;-57
2021/03/12 01:12:51;;;;;;;26.10;12.73;;;4.90;99.90;;;;;;4465831;28;659201;-62
2021/03/12 01:15:38;;;;;;;18.33;9.33;;;4.70;99.90;;;;;;4445629;28;659987;-61
2021/03/12 01:18:25;;;;;;;25.73;14.30;;;4.90;99.90;;;;;;4460787;28;658562;-61
2021/03/12 01:21:12;;;;;;;27.33;13.80;;;4.80;99.90;;;;;;4451054;28;658591;-60
2021/03/12 01:23:59;;;;;;;28.00;14.10;;;4.70;99.90;;;;;;4469522;28;659295;-61
2021/03/12 01:26:47;;;;;;;27.77;15.20;;;4.80;99.90;;;;;;4453988;28;659217;-61
2021/03/12 01:29:34;;;;;;;29.27;16.00;;;4.60;99.90;;;;;;4435718;28;659844;-61
2021/03/12 01:32:21;;;;;;;31.40;16.13;;;4.50;99.90;;;;;;4464600;28;659200;-61
2021/03/12 01:35:09;;;;;;;29.23;16.03;;;4.30;99.90;;;;;;4445477;28;659838;-60
2021/03/12 01:37:56;;;;;;;27.23;12.30;;;4.30;99.90;;;;;;4461395;28;660069;-61
2021/03/12 01:40:44;;;;;;;29.60;16.65;;;4.50;99.90;;;;;;4442044;28;658785;-61
2021/03/12 01:43:32;;;;;;;36.07;18.30;;;4.40;99.90;;;;;;4466212;28;659216;-62
2021/03/12 01:46:19;;;;;;;29.63;17.10;;;4.40;99.90;;;;;;4439209;28;659622;-61
2021/03/12 01:49:06;;;;;;;32.40;16.60;;;4.50;99.90;;;;;;4465702;28;659109;-62
2021/03/12 01:51:53;;;;;;;16.17;7.13;;;4.40;99.90;;;;;;4437596;28;659756;-61
2021/03/12 01:54:40;;;;;;;19.80;8.97;;;4.50;99.90;;;;;;4461613;28;659114;-61
2021/03/12 01:57:27;;;;;;;24.63;10.53;;;4.50;99.90;;;;;;4466020;28;658756;-61
2021/03/12 02:00:16;;;;;;;21.83;9.13;;;4.50;99.90;;;;;;4446593;28;659537;-60
2021/03/12 02:14:31;;;;;;;12.97;5.87;;;4.50;99.90;;;;;;4402488;28;658049;-61
2021/03/12 02:17:23;;;;;;;31.03;17.30;;;4.70;99.90;;;;;;4420497;28;657145;-61
2021/03/12 02:20:20;;;;;;;18.27;9.80;;;4.50;99.90;;;;;;4409008;28;660189;-61
2021/03/12 02:23:22;;;;;;;27.63;15.18;;;4.60;99.90;;;;;;4406880;28;657747;-60
2021/03/12 02:26:12;;;;;;;15.43;8.30;;;4.50;99.90;;;;;;4387668;28;659939;-60
2021/03/12 02:29:00;;;;;;;24.57;12.83;;;4.50;99.90;;;;;;4408546;28;659507;-61
2021/03/12 02:31:47;;;;;;;23.83;11.77;;;4.50;99.90;;;;;;4424892;28;658741;-60
2021/03/12 02:34:36;;;;;;;19.42;10.13;;;4.50;99.90;;;;;;4450906;28;660221;-60
2021/03/12 02:37:23;;;;;;;31.47;14.23;;;4.60;99.90;;;;;;4428331;28;658736;-61
2021/03/12 02:40:11;;;;;;;31.10;15.33;;;4.60;99.90;;;;;;4445090;28;660467;-61
2021/03/12 02:42:58;;;;;;;28.53;14.40;;;4.70;99.90;;;;;;4419987;28;658785;-60
2021/03/12 02:45:45;;;;;;;23.63;11.37;;;4.50;99.90;;;;;;4439063;28;660736;-61
2021/03/12 02:48:32;;;;;;;17.30;9.47;;;4.50;99.90;;;;;;4414304;28;659696;-60
2021/03/12 02:51:19;;;;;;;26.33;13.43;;;4.50;99.90;;;;;;4428799;28;659419;-59
2021/03/12 02:54:06;;;;;;;17.50;8.40;;;4.40;99.90;;;;;;4441890;28;659615;-61
2021/03/12 02:56:53;;;;;;;28.80;16.50;;;4.40;99.90;;;;;;4429435;28;657869;-62
2021/03/12 02:59:40;;;;;;;21.17;12.57;;;4.40;99.90;;;;;;4445966;28;659773;-61
2021/03/12 03:02:28;;;;;;;13.57;6.27;;;4.40;99.90;;;;;;4414279;28;658519;-60
2021/03/12 03:05:15;;;;;;;24.40;13.07;;;4.40;99.90;;;;;;4432823;28;659460;-61
2021/03/12 03:08:03;;;;;;;32.03;17.67;;;4.30;99.90;;;;;;4409918;28;658557;-59
2021/03/12 03:10:50;;;;;;;28.77;16.00;;;4.30;99.90;;;;;;4436680;28;660606;-61
2021/03/12 03:13:39;;;;;;;29.90;16.77;;;4.20;99.90;;;;;;4428464;28;658774;-57
2021/03/12 03:16:29;;;;;;;32.17;16.57;;;4.10;99.90;;;;;;4453254;28;659205;-62
2021/03/12 03:19:18;;;;;;;19.07;10.73;;;4.10;99.90;;;;;;4438922;28;659104;-59
2021/03/12 03:22:05;;;;;;;26.00;13.97;;;4.30;99.90;;;;;;4438421;28;660448;-61
2021/03/12 03:24:52;;;;;;;21.13;12.17;;;4.30;99.90;;;;;;4440333;28;659208;-56
2021/03/12 03:27:40;;;;;;;20.92;11.63;;;4.40;99.90;;;;;;4463969;28;659229;-61
2021/03/12 03:30:26;;;;;;;16.47;9.63;;;4.50;99.90;;;;;;4458217;28;659129;-61
2021/03/12 03:33:14;;;;;;;21.73;12.37;;;4.40;99.90;;;;;;4441476;28;657592;-61
2021/03/12 03:36:02;;;;;;;24.47;13.03;;;4.40;99.90;;;;;;4463977;28;659513;-62
2021/03/12 03:38:49;;;;;;;22.33;12.67;;;4.20;99.90;;;;;;4440048;28;659474;-62
2021/03/12 03:41:39;;;;;;;23.30;12.77;;;4.20;99.90;;;;;;4455660;28;658829;-62
2021/03/12 03:44:27;;;;;;;22.70;12.93;;;4.30;99.90;;;;;;4433732;28;659915;-61
2021/03/12 03:47:14;;;;;;;17.63;8.87;;;4.40;99.90;;;;;;4444108;28;658594;-62
2021/03/12 03:50:01;;;;;;;27.03;13.33;;;4.40;99.90;;;;;;4466407;28;658891;-62
2021/03/12 03:52:49;;;;;;;22.17;12.57;;;4.40;99.90;;;;;;4432478;28;658861;-61
2021/03/12 03:55:35;;;;;;;21.67;12.80;;;4.30;99.90;;;;;;4453921;28;658670;-60
2021/03/12 03:58:22;;;;;;;22.47;12.70;;;4.50;99.90;;;;;;4436273;28;658549;-61
2021/03/12 04:01:09;;;;;;;19.27;10.37;;;4.40;99.90;;;;;;4463435;28;659466;-62
2021/03/12 04:03:56;;;;;;;20.03;9.70;;;4.40;99.90;;;;;;4462675;28;658147;-59
2021/03/12 04:06:44;;;;;;;20.50;11.97;;;4.50;99.90;;;;;;4430872;28;659869;-61
2021/03/12 04:09:32;;;;;;;20.63;11.63;;;4.60;99.90;;;;;;4450538;28;659751;-61
2021/03/12 04:12:19;;;;;;;26.23;12.97;;;4.70;99.90;;;;;;4434972;28;660579;-61
2021/03/12 04:15:07;;;;;;;19.47;11.07;;;4.60;99.90;;;;;;4462896;28;658689;-61
2021/03/12 04:17:54;;;;;;;23.67;11.73;;;4.50;99.90;;;;;;4437393;28;660175;-62
2021/03/12 04:20:42;;;;;;;20.43;11.10;;;4.40;99.90;;;;;;4460967;28;659353;-60
2021/03/12 04:23:29;;;;;;;23.20;11.40;;;4.50;99.90;;;;;;4442736;28;660566;-61
2021/03/12 04:26:17;;;;;;;19.10;10.50;;;4.50;99.90;;;;;;4462685;28;659883;-61
2021/03/12 04:29:04;;;;;;;19.20;11.20;;;4.50;99.90;;;;;;4435770;28;660637;-61
2021/03/12 04:31:51;;;;;;;21.20;11.10;;;4.50;99.90;;;;;;4463409;28;659238;-60
2021/03/12 04:34:38;;;;;;;21.63;11.60;;;4.60;99.90;;;;;;4447841;28;659500;-61
2021/03/12 04:37:25;;;;;;;19.30;11.20;;;4.60;99.90;;;;;;4452279;28;659881;-61
2021/03/12 04:40:13;;;;;;;23.33;13.60;;;4.80;99.90;;;;;;4460836;28;659955;-57
2021/03/12 04:43:01;;;;;;;10.32;6.50;;;4.90;99.90;;;;;;4466638;28;659804;-61
2021/03/12 04:45:48;;;;;;;11.30;5.67;;;4.80;99.90;;;;;;4450257;28;657545;-62
2021/03/12 04:48:35;;;;;;;23.67;13.13;;;5.00;99.90;;;;;;4465407;28;657953;-62
2021/03/12 04:51:22;;;;;;;23.77;12.67;;;4.90;99.90;;;;;;4442183;28;658748;-60
2021/03/12 04:54:10;;;;;;;22.23;12.20;;;4.80;99.90;;;;;;4470503;28;659727;-61
2021/03/12 04:56:57;;;;;;;23.65;12.27;;;4.80;99.90;;;;;;4446963;28;658878;-57
2021/03/12 04:59:46;;;;;;;21.23;11.33;;;4.70;99.90;;;;;;4469921;28;658549;-59
2021/03/12 05:02:33;;;;;;;24.00;13.03;;;4.70;99.90;;;;;;4435726;28;659547;-62
2021/03/12 05:05:20;;;;;;;22.37;12.87;;;4.50;99.90;;;;;;4463538;28;659106;-61
2021/03/12 05:08:09;;;;;;;18.43;10.80;;;4.50;99.90;;;;;;4446670;28;658577;-60
2021/03/12 05:11:01;;;;;;;29.57;14.07;;;4.70;99.90;;;;;;4464419;28;659233;-62
2021/03/12 05:13:49;;;;;;;29.60;15.97;;;4.80;99.90;;;;;;4416875;28;658169;-61
2021/03/12 05:16:37;;;;;;;24.50;13.43;;;4.80;99.90;;;;;;4459135;28;659929;-62
2021/03/12 05:19:24;;;;;;;18.98;10.38;;;4.80;99.90;;;;;;4439885;28;659618;-61
2021/03/12 05:22:11;;;;;;;26.50;13.90;;;4.90;99.90;;;;;;4464664;28;658250;-62
2021/03/12 05:24:58;;;;;;;18.50;7.77;;;4.90;99.90;;;;;;4447453;28;658998;-61
2021/03/12 05:27:45;;;;;;;28.90;14.97;;;4.80;99.90;;;;;;4459355;28;659615;-61
2021/03/12 05:30:32;;;;;;;35.20;17.67;;;4.70;99.90;;;;;;4440413;28;658447;-58
2021/03/12 05:33:21;;;;;;;41.23;19.47;;;4.70;99.90;;;;;;4462067;28;659700;-61
2021/03/12 05:36:08;;;;;;;21.90;10.67;;;4.80;99.90;;;;;;4445433;28;658630;-61
2021/03/12 05:38:55;;;;;;;21.93;8.70;;;5.00;99.90;;;;;;4468953;28;659329;-61
2021/03/12 05:41:42;;;;;;;41.93;21.50;;;5.00;99.90;;;;;;4453341;28;658943;-60
2021/03/12 05:44:29;;;;;;;35.77;15.87;;;4.90;99.90;;;;;;4461569;28;658754;-62
2021/03/12 05:47:16;;;;;;;35.97;16.77;;;4.90;99.90;;;;;;4455447;28;660189;-61
2021/03/12 05:50:05;;;;;;;29.07;14.70;;;5.00;99.90;;;;;;4444974;28;658717;-61
2021/03/12 05:52:52;;;;;;;37.53;17.85;;;5.00;99.90;;;;;;4445394;28;658818;-58
2021/03/12 05:55:39;;;;;;;19.93;10.67;;;5.20;99.90;;;;;;4467249;28;660058;-62
2021/03/12 05:58:29;;;;;;;31.07;14.93;;;5.30;99.90;;;;;;4449216;28;659777;-62
2021/03/12 06:01:16;;;;;;;39.22;19.02;;;5.30;99.90;;;;;;4442074;28;658799;-62
2021/03/12 06:04:03;;;;;;;36.77;19.47;;;5.30;99.90;;;;;;4435963;28;658350;-60
2021/03/12 06:06:51;;;;;;;36.70;17.47;;;5.30;99.90;;;;;;4463898;28;659368;-61
2021/03/12 06:09:38;;;;;;;35.55;17.88;;;5.30;99.90;;;;;;4429394;28;659494;-61
2021/03/12 06:12:25;;;;;;;30.83;15.63;;;5.30;99.90;;;;;;4459896;28;660280;-61
2021/03/12 06:15:13;;;;;;;29.77;16.20;;;5.50;99.90;;;;;;4438815;28;658484;-58
2021/03/12 06:18:00;;;;;;;19.47;10.57;;;5.50;99.90;;;;;;4468499;28;659222;-61
2021/03/12 06:20:48;;;;;;;15.35;6.22;;;5.60;99.90;;;;;;4445642;28;658897;-63
2021/03/12 06:23:36;;;;;;;35.27;14.13;;;5.80;99.90;;;;;;4462091;28;658718;-66
2021/03/12 06:26:23;;;;;;;26.17;13.13;;;5.90;99.90;;;;;;4434437;28;660178;-65
2021/03/12 06:29:10;;;;;;;18.20;8.60;;;5.90;99.90;;;;;;4455463;28;660337;-66
2021/03/12 06:31:57;;;;;;;25.50;12.00;;;6.00;99.90;;;;;;4445267;28;658524;-63
2021/03/12 06:34:48;;;;;;;25.43;13.43;;;6.00;99.90;;;;;;4461731;28;658626;-66
2021/03/12 06:37:35;;;;;;;23.33;11.23;;;6.00;99.90;;;;;;4434894;28;659378;-64
2021/03/12 06:40:25;;;;;;;21.40;10.93;;;6.10;99.90;;;;;;4438871;28;659693;-65
2021/03/12 06:43:13;;;;;;;18.70;9.47;;;6.20;99.90;;;;;;4452948;28;658845;-64
2021/03/12 06:46:01;;;;;;;26.17;10.13;;;6.40;99.90;;;;;;4463907;28;659599;-65
2021/03/12 06:48:48;;;;;;;13.90;7.03;;;6.40;99.90;;;;;;4445159;28;659725;-65
2021/03/12 06:51:35;;;;;;;20.20;10.13;;;6.30;99.90;;;;;;4465329;28;658847;-66
2021/03/12 06:54:22;;;;;;;17.17;9.13;;;6.40;99.90;;;;;;4459486;28;660194;-63
2021/03/12 06:57:19;;;;;;;21.58;9.68;;;6.40;99.90;;;;;;4462105;28;657644;-66
2021/03/12 07:00:07;;;;;;;13.33;6.93;;;6.30;99.90;;;;;;4441735;28;658381;-65
2021/03/12 07:02:54;;;;;;;16.40;7.97;;;6.50;99.90;;;;;;4445894;28;657491;-67
2021/03/12 07:05:57;;;;;;;17.97;8.57;;;6.40;99.90;;;;;;4466403;28;658679;-67
2021/03/12 07:08:45;;;;;;;17.93;8.50;;;6.40;99.90;;;;;;4420284;28;659085;-67
2021/03/12 07:11:32;;;;;;;15.97;6.63;;;6.40;99.90;;;;;;4452080;28;658111;-63
2021/03/12 07:14:20;;;;;;;14.70;7.67;;;6.40;99.90;;;;;;4463686;28;657449;-67
2021/03/12 07:17:07;;;;;;;17.80;8.10;;;6.40;99.90;;;;;;4445719;28;658433;-63
2021/03/12 07:19:54;;;;;;;21.57;9.97;;;6.50;99.90;;;;;;4468557;28;657925;-66
2021/03/12 07:22:43;;;;;;;11.70;6.30;;;6.50;99.90;;;;;;4454246;28;658146;-66
2021/03/12 07:25:30;;;;;;;13.60;6.87;;;6.40;99.90;;;;;;4442742;28;658016;-67
2021/03/12 07:28:17;;;;;;;20.03;10.73;;;6.50;99.90;;;;;;4453004;28;657694;-62
2021/03/12 07:31:05;;;;;;;22.30;11.37;;;6.40;99.90;;;;;;4451005;28;658910;-67
2021/03/12 07:33:53;;;;;;;19.17;10.07;;;6.40;99.90;;;;;;4434571;28;659193;-65
2021/03/12 07:36:45;;;;;;;12.23;5.63;;;6.60;99.90;;;;;;4457211;28;661024;-66
2021/03/12 07:39:34;;;;;;;19.00;9.90;;;6.80;99.90;;;;;;4438151;28;658266;-67
2021/03/12 07:42:21;;;;;;;17.20;7.70;;;6.90;99.90;;;;;;4441921;28;657687;-66
2021/03/12 07:45:10;;;;;;;17.80;9.53;;;7.00;99.90;;;;;;4431531;28;658072;-66
2021/03/12 07:47:57;;;;;;;18.57;8.97;;;7.00;99.90;;;;;;4459720;28;658256;-65
2021/03/12 07:50:44;;;;;;;18.87;8.23;;;7.10;99.90;;;;;;4437661;28;659170;-66
2021/03/12 07:53:44;;;;;;;16.93;7.40;;;7.40;99.90;;;;;;4466345;28;657423;-66
2021/03/12 07:56:54;;;;;;;14.80;6.17;;;7.70;99.90;;;;;;4429451;28;658785;-66
2021/03/12 08:00:00;;;;;;;17.00;6.97;;;7.80;99.90;;;;;;4444694;28;657965;-67
2021/03/12 08:02:58;;;;;;;16.97;6.67;;;7.70;99.90;;;;;;4440054;28;657730;-64
2021/03/12 08:05:45;;;;;;;16.43;7.70;;;7.80;99.90;;;;;;4440324;28;658927;-67
2021/03/12 08:08:33;;;;;;;8.27;3.73;;;8.00;99.90;;;;;;4447262;28;657615;-66
2021/03/12 08:11:21;;;;;;;9.53;4.33;;;8.00;99.90;;;;;;4471847;28;657015;-66
2021/03/12 08:14:12;;;;;;;11.73;6.20;;;8.20;99.90;;;;;;4449745;28;657356;-66
2021/03/12 08:17:19;;;;;;;13.90;6.28;;;8.50;99.90;;;;;;4449150;28;657946;-66
2021/03/12 08:20:28;;;;;;;12.47;5.57;;;8.60;99.90;;;;;;4443869;28;657582;-66
2021/03/12 08:23:15;;;;;;;12.23;5.27;;;8.70;99.90;;;;;;4439375;28;659128;-67
2021/03/12 08:26:02;;;;;;;8.00;4.10;;;8.60;99.90;;;;;;4448786;28;658194;-63
2021/03/12 08:28:49;;;;;;;10.90;4.80;;;8.60;99.90;;;;;;4463500;28;656965;-67
2021/03/12 08:31:45;;;;;;;12.30;5.60;;;8.50;99.90;;;;;;4464786;28;657627;-67
2021/03/12 08:34:36;;;;;;;8.93;4.30;;;8.30;99.90;;;;;;4434184;28;658034;-64
2021/03/12 08:37:41;;;;;;;10.47;4.43;;;8.10;99.90;;;;;;4442881;28;656523;-67
2021/03/12 08:40:28;;;;;;;10.40;4.80;;;7.90;99.90;;;;;;4420662;28;657934;-66
2021/03/12 08:43:15;;;;;;;9.47;4.60;;;7.70;99.90;;;;;;4472212;28;657946;-67
2021/03/12 08:46:03;;;;;;;7.60;3.90;;;7.60;99.90;;;;;;4448889;28;656591;-64
2021/03/12 08:48:51;;;;;;;11.57;5.50;;;7.40;99.90;;;;;;4469890;28;656995;-66
2021/03/12 08:51:39;;;;;;;13.23;5.23;;;7.20;99.90;;;;;;4398584;28;657426;-67
2021/03/12 08:54:29;;;;;;;7.37;3.43;;;7.10;99.90;;;;;;4464590;28;657174;-67
2021/03/12 08:57:20;;;;;;;14.27;5.00;;;6.90;99.90;;;;;;4438762;28;658064;-67
2021/03/12 09:00:08;;;;;;;7.72;3.63;;;6.80;99.90;;;;;;4426000;28;658436;-62
2021/03/12 09:03:19;;;;;;;11.33;4.20;;;6.80;99.90;;;;;;4459901;28;657043;-67
2021/03/12 09:06:07;;;;;;;7.27;3.63;;;6.70;99.90;;;;;;4435714;28;658394;-65
2021/03/12 09:08:54;;;;;;;8.17;3.47;;;6.70;99.90;;;;;;4434998;28;656914;-67
2021/03/12 09:11:44;;;;;;;7.03;3.27;;;6.70;99.90;;;;;;4452667;28;656740;-64
2021/03/12 09:14:38;;;;;;;7.97;3.50;;;6.60;99.90;;;;;;4466992;28;656287;-65
2021/03/12 09:17:25;;;;;;;7.87;4.17;;;6.50;99.90;;;;;;4441259;28;657949;-66
2021/03/12 09:20:13;;;;;;;7.13;3.63;;;6.40;99.90;;;;;;4450302;28;657830;-63
2021/03/12 09:23:00;;;;;;;4.73;2.87;;;6.40;99.90;;;;;;4467748;28;657473;-67
2021/03/12 09:25:48;;;;;;;7.70;3.57;;;6.30;99.90;;;;;;4440066;28;656478;-64
2021/03/12 09:28:36;;;;;;;4.60;3.03;;;6.10;99.90;;;;;;4467015;28;658549;-66
2021/03/12 09:31:29;;;;;;;7.80;4.70;;;6.10;99.90;;;;;;4441979;28;657436;-65
2021/03/12 09:34:17;;;;;;;4.60;2.67;;;6.00;99.90;;;;;;4444943;28;657146;-66
2021/03/12 09:37:04;;;;;;;5.30;2.80;;;5.90;99.90;;;;;;4443854;28;658518;-66
2021/03/12 09:39:51;;;;;;;5.03;2.73;;;5.90;99.90;;;;;;4462682;28;657224;-66
2021/03/12 09:42:38;;;;;;;4.97;2.67;;;5.80;99.90;;;;;;4446203;28;656993;-65
2021/03/12 09:45:26;;;;;;;7.55;2.95;;;5.80;99.90;;;;;;4463415;28;657693;-66
2021/03/12 09:48:13;;;;;;;6.53;3.08;;;5.60;99.90;;;;;;4447171;28;657067;-66
2021/03/12 09:51:00;;;;;;;6.80;3.10;;;5.40;99.90;;;;;;4466903;28;658466;-66
2021/03/12 09:53:48;;;;;;;5.50;2.73;;;5.20;99.90;;;;;;4439013;28;656359;-63
2021/03/12 09:56:35;;;;;;;3.80;1.93;;;4.90;99.90;;;;;;4469437;28;658160;-66
2021/03/12 09:59:25;;;;;;;8.03;3.17;;;4.90;99.90;;;;;;4449976;28;656598;-62
2021/03/12 10:02:12;;;;;;;9.07;3.40;;;4.90;99.90;;;;;;4467956;28;657371;-67
2021/03/12 10:05:00;;;;;;;6.83;2.93;;;5.00;99.90;;;;;;4445089;28;657775;-67
2021/03/12 10:07:47;;;;;;;7.90;4.17;;;5.10;99.90;;;;;;4453335;28;656634;-63
2021/03/12 10:10:35;;;;;;;10.67;4.10;;;5.30;99.90;;;;;;4434593;28;656607;-67
2021/03/12 10:13:25;;;;;;;12.13;4.20;;;5.70;99.90;;;;;;4457496;28;658372;-63
2021/03/12 10:16:12;;;;;;;11.05;4.93;;;6.10;99.90;;;;;;4450151;28;657850;-64
2021/03/12 10:19:00;;;;;;;15.17;5.50;;;6.50;99.90;;;;;;4468647;28;659004;-66
2021/03/12 10:21:48;;;;;;;12.90;5.23;;;7.00;99.90;;;;;;4440149;28;658445;-63
2021/03/12 10:24:35;;;;;;;7.50;3.67;;;7.20;99.90;;;;;;4436131;28;658828;-64
2021/03/12 10:27:22;;;;;;;5.57;2.97;;;7.10;99.90;;;;;;4460361;28;657540;-66
2021/03/12 10:30:10;;;;;;;14.63;8.37;;;7.20;99.90;;;;;;4435485;28;658173;-67
2021/03/12 10:32:58;;;;;;;11.97;6.73;;;7.00;99.90;;;;;;4445884;28;658076;-65
2021/03/12 10:35:47;;;;;;;13.40;5.43;;;6.80;99.90;;;;;;4465439;28;658924;-66
2021/03/12 10:38:34;;;;;;;18.03;7.30;;;6.70;99.90;;;;;;4441347;28;659510;-66
2021/03/12 10:41:22;;;;;;;16.57;6.90;;;6.50;99.90;;;;;;4464490;28;657281;-66
2021/03/12 10:44:10;;;;;;;13.73;5.77;;;6.30;99.90;;;;;;4440440;28;658425;-64
2021/03/12 10:47:09;;;;;;;13.10;6.60;;;6.10;99.90;;;;;;4447843;28;657784;-59
2021/03/12 10:49:56;;;;;;;14.23;6.77;;;5.90;99.90;;;;;;4441695;28;658926;-67
2021/03/12 10:52:44;;;;;;;11.23;6.20;;;5.80;99.90;;;;;;4446698;28;657610;-67
2021/03/12 10:55:32;;;;;;;14.27;7.10;;;5.60;99.90;;;;;;4465182;28;658141;-67
2021/03/12 10:58:23;;;;;;;10.67;5.67;;;5.60;99.90;;;;;;4441402;28;658620;-67
2021/03/12 11:01:12;;;;;;;17.10;7.37;;;5.60;99.90;;;;;;4439306;28;658761;-66
2021/03/12 11:03:59;;;;;;;11.33;6.67;;;5.60;99.90;;;;;;4441001;28;658236;-66
2021/03/12 11:06:49;;;;;;;18.53;9.00;;;5.80;99.90;;;;;;4464704;28;657773;-67
2021/03/12 11:09:37;;;;;;;16.80;8.33;;;5.90;99.90;;;;;;4441322;28;658024;-66
2021/03/12 11:12:25;;;;;;;19.53;9.70;;;6.10;99.90;;;;;;4446166;28;658524;-66
2021/03/12 11:15:13;;;;;;;20.80;10.97;;;6.10;99.90;;;;;;4455204;28;658050;-62
2021/03/12 11:18:00;;;;;;;16.87;7.47;;;6.10;99.90;;;;;;4463567;28;660367;-65
2021/03/12 11:20:47;;;;;;;19.25;10.23;;;6.20;99.90;;;;;;4444642;28;657262;-65
2021/03/12 11:23:34;;;;;;;18.60;8.23;;;6.20;99.90;;;;;;4465749;28;658709;-65
2021/03/12 11:26:23;;;;;;;16.20;9.10;;;6.30;99.90;;;;;;4456171;28;657690;-66
2021/03/12 11:29:11;;;;;;;20.67;10.37;;;5.90;99.90;;;;;;4441602;28;659042;-67
2021/03/12 11:31:59;;;;;;;16.73;9.77;;;5.90;99.90;;;;;;4443761;28;658492;-66
2021/03/12 11:34:46;;;;;;;19.60;8.03;;;6.40;99.90;;;;;;4458630;28;658240;-66
2021/03/12 11:37:35;;;;;;;14.33;7.67;;;6.80;99.90;;;;;;4445668;28;657744;-66
2021/03/12 11:40:22;;;;;;;10.43;5.30;;;7.40;99.90;;;;;;4444521;28;657134;-64
2021/03/12 11:43:10;;;;;;;6.20;2.83;;;7.90;99.90;;;;;;4468905;28;657564;-67
2021/03/12 11:45:57;;;;;;;4.17;2.13;;;8.20;99.90;;;;;;4443476;28;657970;-62
2021/03/12 11:48:44;;;;;;;5.47;2.60;;;8.30;99.90;;;;;;4466926;28;656230;-67
2021/03/12 11:51:31;;;;;;;6.27;2.70;;;8.50;99.90;;;;;;4465697;28;656733;-66
2021/03/12 11:54:18;;;;;;;5.03;3.20;;;8.50;99.90;;;;;;4445642;28;657991;-65
2021/03/12 11:57:05;;;;;;;8.53;3.87;;;8.20;99.90;;;;;;4451975;28;658606;-66
2021/03/12 11:59:53;;;;;;;8.60;4.70;;;7.80;99.90;;;;;;4446554;28;656585;-64
2021/03/12 12:02:40;;;;;;;6.87;3.90;;;7.50;99.90;;;;;;4461056;28;656981;-66
2021/03/12 12:05:28;;;;;;;7.70;3.63;;;7.20;99.90;;;;;;4446965;28;657454;-64
2021/03/12 12:08:15;;;;;;;11.13;5.00;;;7.00;99.90;;;;;;4461209;28;657571;-66
2021/03/12 12:11:02;;;;;;;9.77;5.03;;;6.90;99.90;;;;;;4446752;28;658333;-63
2021/03/12 12:13:49;;;;;;;7.22;3.10;;;6.70;99.90;;;;;;4452371;28;656476;-65
2021/03/12 12:16:37;;;;;;;12.65;6.60;;;6.70;99.90;;;;;;4445699;28;656328;-67
2021/03/12 12:19:24;;;;;;;16.07;7.33;;;6.60;99.90;;;;;;4436360;28;658606;-67
2021/03/12 12:22:11;;;;;;;19.67;8.67;;;6.70;99.90;;;;;;4457063;28;658155;-67
2021/03/12 12:25:02;;;;;;;15.47;7.70;;;6.80;99.90;;;;;;4443571;28;657831;-66
2021/03/12 12:27:49;;;;;;;12.97;6.90;;;6.90;99.90;;;;;;4443629;28;658058;-66
2021/03/12 12:30:36;;;;;;;16.13;8.13;;;7.00;99.90;;;;;;4457301;28;658373;-67
2021/03/12 12:33:24;;;;;;;10.93;5.80;;;7.10;99.90;;;;;;4431996;28;659016;-65
2021/03/12 12:36:11;;;;;;;13.17;7.40;;;7.20;99.90;;;;;;4452931;28;658287;-67
2021/03/12 12:38:58;;;;;;;13.67;5.73;;;7.20;99.90;;;;;;4438513;28;657864;-66
2021/03/12 12:41:45;;;;;;;10.83;5.60;;;7.10;99.90;;;;;;4450004;28;659752;-67
2021/03/12 12:44:32;;;;;;;10.52;5.15;;;7.10;99.90;;;;;;4453388;28;657969;-62
2021/03/12 12:47:19;;;;;;;8.20;3.93;;;7.30;99.90;;;;;;4462405;28;658231;-66
2021/03/12 12:50:08;;;;;;;11.23;4.40;;;7.40;99.90;;;;;;4465985;28;657238;-65
2021/03/12 12:52:56;;;;;;;7.63;3.43;;;7.70;99.90;;;;;;4440016;28;658573;-67
2021/03/12 12:55:43;;;;;;;8.63;3.80;;;8.40;99.90;;;;;;4448816;28;656525;-66
2021/03/12 12:58:30;;;;;;;8.13;2.90;;;9.60;99.90;;;;;;4472897;28;657050;-67
2021/03/12 13:01:17;;;;;;;11.63;3.60;;;10.50;99.90;;;;;;4461214;28;656269;-64
2021/03/12 13:04:04;;;;;;;10.07;4.17;;;10.40;99.90;;;;;;4463177;28;658371;-66
2021/03/12 13:06:52;;;;;;;8.00;3.40;;;10.00;99.90;;;;;;4465624;28;658869;-67
2021/03/12 13:09:39;;;;;;;13.37;4.23;;;9.80;99.90;;;;;;4436905;28;659553;-67
2021/03/12 13:12:26;;;;;;;9.00;4.30;;;10.00;99.90;;;;;;4458215;28;659622;-67
2021/03/12 13:15:14;;;;;;;8.20;3.77;;;11.00;99.90;;;;;;4442140;28;658909;-66
2021/03/12 13:18:01;;;;;;;9.37;4.70;;;12.40;99.90;;;;;;4410475;28;658567;-68
2021/03/12 13:20:53;;;;;;;8.10;4.83;;;11.50;99.10;;;;;;4441777;28;658822;-66
2021/03/12 13:23:41;;;;;;;8.95;4.65;;;10.60;99.00;;;;;;4435581;28;658756;-68
2021/03/12 13:26:28;;;;;;;10.23;4.40;;;9.70;99.90;;;;;;4448605;28;657352;-66
2021/03/12 13:29:15;;;;;;;10.50;4.70;;;9.30;99.90;;;;;;4467503;28;658489;-67
2021/03/12 13:32:02;;;;;;;13.40;4.67;;;9.10;99.90;;;;;;4451730;28;658057;-64
2021/03/12 13:34:49;;;;;;;11.10;4.27;;;9.10;99.90;;;;;;4460785;28;659241;-66
2021/03/12 13:37:38;;;;;;;9.90;2.83;;;9.20;99.90;;;;;;4454852;28;657910;-67
2021/03/12 13:40:26;;;;;;;5.33;2.80;;;9.20;99.90;;;;;;4444498;28;658936;-66
2021/03/12 13:43:13;;;;;;;8.70;3.33;;;9.10;99.90;;;;;;4444954;28;657762;-66
2021/03/12 13:46:00;;;;;;;8.87;3.50;;;8.60;99.90;;;;;;4464772;28;656916;-66
2021/03/12 13:48:47;;;;;;;11.00;3.88;;;8.80;99.90;;;;;;4444915;28;657409;-64
2021/03/12 13:51:34;;;;;;;10.77;5.37;;;9.80;99.90;;;;;;4463621;28;657317;-67
2021/03/12 13:54:21;;;;;;;9.60;4.37;;;10.60;99.90;;;;;;4463083;28;657545;-67
2021/03/12 13:57:10;;;;;;;12.43;5.85;;;10.20;99.90;;;;;;4445365;28;658435;-67
2021/03/12 13:59:57;;;;;;;12.87;4.90;;;9.40;99.90;;;;;;4442293;28;659971;-64
2021/03/12 14:02:44;;;;;;;13.53;5.70;;;8.70;99.90;;;;;;4469379;28;657562;-67
2021/03/12 14:05:31;;;;;;;13.63;5.47;;;8.30;99.90;;;;;;4455929;28;658645;-66
2021/03/12 14:08:18;;;;;;;15.37;5.37;;;8.20;99.90;;;;;;4434143;28;658162;-67
2021/03/12 14:11:05;;;;;;;11.87;5.23;;;8.20;99.90;;;;;;4461831;28;659321;-67
2021/03/12 14:13:53;;;;;;;12.57;5.37;;;8.30;99.90;;;;;;4456320;28;657754;-63
2021/03/12 14:16:40;;;;;;;13.83;4.83;;;9.50;99.90;;;;;;4457160;28;659133;-67
2021/03/12 14:19:27;;;;;;;9.47;3.70;;;10.30;99.90;;;;;;4444248;28;658284;-63
2021/03/12 14:22:14;;;;;;;8.53;3.60;;;10.00;99.90;;;;;;4468545;28;657515;-67
2021/03/12 14:25:01;;;;;;;11.60;3.73;;;10.00;99.40;;;;;;4460635;28;658837;-66
2021/03/12 14:27:48;;;;;;;7.93;2.73;;;9.60;99.90;;;;;;4429086;28;658565;-66
2021/03/12 14:30:36;;;;;;;9.27;3.00;;;10.60;98.50;;;;;;4469164;28;657026;-67